ADDS METAR Data INFO
IDs: Format: Raw Decoded Include TAF

Data at: 2214 UTC 24 Jun 2018

KHKS 242153Z 18005KT 10SM FEW060 BKN080 33/23 A2997 RMK AO2 SLP139 T03280228
KHKS 242053Z 27005KT 10SM CLR 33/23 A2997 RMK AO2 SLP140 T03280228 56020
KHKS 241953Z 29003KT 9SM FEW060 33/24 A2999 RMK AO2 SLP145 T03280239
KHKS 241853Z 27006KT 10SM FEW039 SCT055 BKN080 32/24 A3001 RMK AO2 SLP153 T03170239
KHKS 241753Z 26006KT 10SM BKN037 BKN050 BKN080 31/24 A3003 RMK AO2 SLP160 T03110239 10322 20244 55000
KHKS 241653Z 26005KT 10SM BKN033 BKN055 31/24 A3003 RMK AO2 SLP159 T03060239
KHKS 241553Z 21009KT 10SM FEW055 31/24 A3003 RMK AO2 SLP159 T03060244
KHKS 241519Z 24005KT 10SM SCT021 SCT029 BKN038 28/24 A3003 RMK AO2 T02830239
KHKS 241453Z 23006KT 10SM SCT019 BKN028 OVC050 29/24 A3003 RMK AO2 SLP160 T02890244 51018
KHKS 241418Z VRB03KT 10SM BKN018 BKN023 OVC027 28/25 A3002 RMK AO2 T02780250
KHKS 241353Z 22006KT 10SM BKN012 OVC019 27/25 A3002 RMK AO2 SLP155 T02720250
KHKS 241338Z 19006KT 10SM BKN011 OVC015 27/25 A3001 RMK AO2 CIG 008V013 T02670250
KHKS 241253Z 17007KT 10SM OVC008 26/24 A2999 RMK AO2 CIG 007V012 SLP148 T02560244
KHKS 241208Z 19003KT 10SM BKN007 BKN012 25/24 A2999 RMK AO2 T02500244
KHKS 241201Z 00000KT 9SM SCT007 24/24 A2998 RMK AO2 T02440239
KHKS 241153Z 15003KT 9SM CLR 24/24 A2998 RMK AO2 SLP142 T02440239 10256 20233 51004
KHKS 241053Z AUTO 17003KT 10SM CLR 24/23 A2997 RMK AO2 SLP141 T02390233
KHKS 240953Z AUTO 20005KT 10SM CLR 24/24 A2997 RMK AO2 SLP139 T02440239
KHKS 240853Z AUTO 22005KT 10SM CLR 25/23 A2997 RMK AO2 SLP138 T02500233 52015
KHKS 240753Z AUTO 20006KT 10SM CLR 25/24 A2995 RMK AO2 SLP132 T02500239
KHKS 240653Z AUTO 18005KT 10SM CLR 26/24 A2994 RMK AO2 SLP129 T02560239
KHKS 240553Z AUTO 17004KT 10SM CLR 26/24 A2992 RMK AO2 SLP123 T02560239 10322 20256 403330222 51006
KHKS 240453Z AUTO 18004KT 10SM CLR 26/23 A2992 RMK AO2 SLP121 T02610233
KHKS 240353Z AUTO 17004KT 10SM BKN050 27/23 A2992 RMK AO2 SLP121 T02670233
KHKS 240253Z AUTO 00000KT 10SM CLR 27/23 A2990 RMK AO2 SLP117 T02720228 53015
KHKS 240153Z AUTO 00000KT 10SM CLR 27/22 A2988 RMK AO2 SLP108 T02720222
KHKS 240053Z 22003KT 10SM CLR 31/22 A2987 RMK AO2 SLP104 T03060217
KHKS 232353Z 21006KT 10SM CLR 32/21 A2986 RMK AO2 SLP102 T03220211 10333 20317 55007
KHKS 232253Z 20013G17KT 10SM CLR 33/21 A2984 RMK AO2 SLP097 T03280206
KHKS 232153Z 20007KT 10SM CLR 33/22 A2986 RMK AO2 SLP103 T03280217
KHKS 232053Z 25008KT 10SM CLR 33/22 A2988 RMK AO2 SLP110 T03280217 58020
KHKS 231953Z 23008KT 190V270 10SM CLR 33/22 A2990 RMK AO2 SLP116 T03280222 $
KHKS 231853Z 26009KT 10SM CLR 32/23 A2993 RMK AO2 SLP125 T03220228 $
KHKS 231753Z 26012G17KT 10SM CLR 32/23 A2994 RMK AO2 SLP130 T03220228 10322 20244 58001 $
KHKS 231653Z 20016G21KT 10SM CLR 31/23 A2995 RMK AO2 SLP132 T03060228 $
KHKS 231553Z 24012KT 10SM SCT027 29/23 A2995 RMK AO2 SLP134 T02940233 $
KHKS 231453Z 23013KT 10SM SCT021 28/24 A2994 RMK AO2 SLP131 T02830239 51008 $
KHKS 231425Z 23009KT 10SM SCT019 27/24 A2993 RMK AO2 T02720239 $
KHKS 231353Z 24012G18KT 10SM SCT016 BKN021 27/24 A2994 RMK AO2 SLP131 T02720244 $
KHKS 231346Z 24008G18KT 200V260 10SM BKN016 27/24 A2994 RMK AO2 T02670244 $
KHKS 231326Z 22007KT 10SM SCT012 SCT023 26/24 A2993 RMK AO2 T02610244 $
KHKS 231253Z 24005KT 10SM OVC021 25/24 A2994 RMK AO2 SLP130 T02500244 $
KHKS 231205Z 21004KT 10SM BKN023 24/24 A2992 RMK AO2 T02440239 $
KHKS 231153Z 21005KT 10SM SCT023 24/24 A2992 RMK AO2 RAB34RAEMM SLP123 P0000 60000 70047 T02440239 10244 20222 51023 $
KHKS 231102Z AUTO 21005KT 10SM FEW009 SCT018 24/23 A2990 RMK AO2 T02390233
KHKS 231053Z AUTO 21006KT 10SM FEW010 BKN018 24/23 A2990 RMK AO2 SLP117 T02390233
KHKS 231044Z AUTO 22004KT 10SM BKN016 24/23 A2990 RMK AO2 T02390233